createdAt,value
2023-02-01T00:00:11.070Z,72.39
2023-02-01T00:01:11.074Z,72.44
2023-02-01T00:02:11.130Z,72.48
2023-02-01T00:03:11.069Z,72.53
2023-02-01T00:04:11.067Z,72.43
2023-02-01T00:05:13.073Z,72.40
2023-02-01T00:06:11.084Z,72.33
2023-02-01T00:07:14.176Z,72.41
2023-02-01T00:08:11.068Z,72.42
2023-02-01T00:09:11.074Z,72.37
2023-02-01T00:10:11.068Z,72.39
2023-02-01T00:11:11.071Z,72.38
2023-02-01T00:12:11.076Z,72.39
2023-02-01T00:13:11.069Z,72.33
2023-02-01T00:14:11.078Z,72.32
2023-02-01T00:15:11.078Z,72.33
2023-02-01T00:16:19.137Z,72.25
2023-02-01T00:17:11.067Z,72.28
2023-02-01T00:18:11.070Z,72.42
2023-02-01T00:19:12.071Z,72.45
2023-02-01T00:20:11.065Z,72.47
2023-02-01T00:21:14.070Z,72.48
2023-02-01T00:22:11.077Z,72.44
2023-02-01T00:23:12.070Z,72.42
2023-02-01T00:24:11.068Z,72.53
2023-02-01T00:25:11.081Z,72.52
2023-02-01T00:26:15.120Z,72.48
2023-02-01T00:27:11.069Z,72.43
2023-02-01T00:28:11.076Z,72.47
2023-02-01T00:29:16.085Z,72.61
2023-02-01T00:30:11.108Z,72.61
2023-02-01T00:31:11.152Z,72.59
2023-02-01T00:32:11.069Z,72.65
2023-02-01T00:33:11.073Z,72.72
2023-02-01T00:34:12.080Z,72.79
2023-02-01T00:35:11.071Z,72.77
2023-02-01T00:36:11.067Z,72.81
2023-02-01T00:37:11.071Z,72.74
2023-02-01T00:38:11.073Z,72.85
2023-02-01T00:39:11.070Z,72.95
2023-02-01T00:40:11.069Z,72.95
2023-02-01T00:41:15.080Z,72.78
2023-02-01T00:42:11.079Z,72.87
2023-02-01T00:43:11.075Z,72.76
2023-02-01T00:44:11.080Z,72.76
2023-02-01T00:45:11.083Z,72.71
2023-02-01T00:46:11.135Z,72.79
2023-02-01T00:47:11.079Z,72.68
2023-02-01T00:48:11.069Z,72.57
2023-02-01T00:49:12.075Z,72.64
2023-02-01T00:50:11.089Z,72.66
2023-02-01T00:51:12.077Z,72.63
2023-02-01T00:52:11.068Z,72.71
2023-02-01T00:53:11.116Z,72.72
2023-02-01T00:54:11.074Z,72.70
2023-02-01T00:55:11.070Z,72.72
2023-02-01T00:56:11.090Z,72.81
2023-02-01T00:57:11.072Z,72.82
2023-02-01T00:58:11.077Z,72.81
2023-02-01T00:59:13.080Z,72.80
2023-02-01T01:00:11.071Z,72.80
2023-02-01T01:01:12.109Z,72.81
2023-02-01T01:02:11.111Z,72.82
2023-02-01T01:03:15.059Z,72.74
2023-02-01T01:04:11.066Z,72.71
2023-02-01T01:05:11.065Z,72.71
2023-02-01T01:06:14.060Z,72.71
2023-02-01T01:07:11.068Z,72.86
2023-02-01T01:08:11.058Z,72.86
2023-02-01T01:09:11.060Z,72.85
2023-02-01T01:10:11.058Z,72.75
2023-02-01T01:11:15.064Z,72.73
2023-02-01T01:12:11.067Z,72.94
2023-02-01T01:13:11.062Z,72.97
2023-02-01T01:14:11.056Z,72.98
2023-02-01T01:15:11.063Z,73.08
2023-02-01T01:16:11.116Z,73.17
2023-02-01T01:17:11.060Z,73.19
2023-02-01T01:18:11.059Z,73.13
2023-02-01T01:19:11.066Z,73.05
2023-02-01T01:20:11.057Z,73.10
2023-02-01T01:21:12.063Z,73.24
2023-02-01T01:22:11.059Z,73.22
2023-02-01T01:23:11.060Z,73.12
2023-02-01T01:24:11.065Z,73.02
2023-02-01T01:25:11.064Z,73.18
2023-02-01T01:26:11.062Z,73.20
2023-02-01T01:27:11.059Z,73.33
2023-02-01T01:28:11.084Z,73.20
2023-02-01T01:29:11.059Z,73.24
2023-02-01T01:30:11.064Z,73.16
2023-02-01T01:31:14.144Z,73.16
2023-02-01T01:32:11.064Z,73.15
2023-02-01T01:33:11.061Z,73.12
2023-02-01T01:34:11.066Z,73.13
2023-02-01T01:35:11.062Z,73.14
2023-02-01T01:36:11.080Z,73.16
2023-02-01T01:37:11.061Z,73.18
2023-02-01T01:38:11.063Z,73.16
2023-02-01T01:39:11.064Z,73.17
2023-02-01T01:40:11.060Z,73.18
2023-02-01T01:41:13.061Z,73.25
2023-02-01T01:42:12.072Z,73.32
2023-02-01T01:43:15.084Z,73.36
2023-02-01T01:44:19.075Z,73.40
2023-02-01T01:45:19.063Z,73.41
2023-02-01T01:46:11.063Z,73.51
2023-02-01T01:47:11.064Z,73.51
2023-02-01T01:48:19.062Z,73.55
2023-02-01T01:49:16.068Z,73.55
2023-02-01T01:50:12.062Z,73.55
2023-02-01T01:51:13.065Z,73.56
2023-02-01T01:52:11.065Z,73.71
2023-02-01T01:53:12.060Z,73.93
2023-02-01T01:54:19.065Z,73.92
2023-02-01T01:55:11.069Z,73.85
2023-02-01T01:56:11.066Z,73.86
2023-02-01T01:57:17.069Z,74.12
2023-02-01T01:58:15.074Z,74.12
2023-02-01T01:59:11.065Z,74.13
2023-02-01T02:00:13.080Z,74.15
2023-02-01T02:01:13.162Z,74.16
2023-02-01T02:02:11.140Z,74.26
2023-02-01T02:03:18.062Z,74.36
2023-02-01T02:04:11.064Z,74.27
2023-02-01T02:05:11.075Z,74.23
2023-02-01T02:06:22.060Z,74.25
2023-02-01T02:07:15.060Z,74.32
2023-02-01T02:09:13.080Z,74.24
2023-02-01T02:10:13.071Z,74.24
2023-02-01T02:11:12.066Z,74.29
2023-02-01T02:12:11.101Z,74.38
2023-02-01T02:13:11.062Z,74.41
2023-02-01T02:14:11.068Z,74.36
2023-02-01T02:15:15.071Z,74.42
2023-02-01T02:16:22.139Z,74.29
2023-02-01T02:17:22.062Z,74.25
2023-02-01T02:18:22.061Z,74.27
2023-02-01T02:19:19.075Z,74.26
2023-02-01T02:20:19.073Z,74.28
2023-02-01T02:21:22.066Z,74.19
2023-02-01T02:22:19.063Z,74.24
2023-02-01T02:23:19.060Z,74.29
2023-02-01T02:24:19.076Z,74.25
2023-02-01T02:25:22.077Z,74.20
2023-02-01T02:26:19.199Z,74.09
2023-02-01T02:27:17.062Z,74.08
2023-02-01T02:28:19.073Z,74.01
2023-02-01T02:29:19.075Z,74.06
2023-02-01T02:30:19.191Z,74.01
2023-02-01T02:31:19.133Z,74.05
2023-02-01T02:32:22.063Z,73.99
2023-02-01T02:33:19.071Z,73.93
2023-02-01T02:34:24.065Z,73.85
2023-02-01T02:35:19.073Z,73.90
2023-02-01T02:36:20.080Z,73.89
2023-02-01T02:37:19.064Z,73.87
2023-02-01T02:38:22.070Z,73.82
2023-02-01T02:39:22.067Z,73.75
2023-02-01T02:40:21.334Z,73.75
2023-02-01T02:41:22.075Z,73.79
2023-02-01T02:42:23.069Z,73.95
2023-02-01T02:43:23.081Z,74.10
2023-02-01T02:44:26.062Z,73.98
2023-02-01T02:45:23.087Z,73.88
2023-02-01T02:46:23.073Z,73.86
2023-02-01T02:47:23.064Z,73.92
2023-02-01T02:48:18.068Z,74.00
2023-02-01T02:49:21.099Z,74.04
2023-02-01T02:50:26.070Z,74.03
2023-02-01T02:51:24.066Z,74.07
2023-02-01T02:52:18.065Z,74.04
2023-02-01T02:53:18.066Z,74.09
2023-02-01T02:54:23.073Z,74.11
2023-02-01T02:55:11.069Z,74.07
2023-02-01T02:56:15.065Z,74.08
2023-02-01T02:57:17.067Z,74.11
2023-02-01T02:58:15.065Z,74.14
2023-02-01T02:59:17.075Z,74.15
2023-02-01T03:00:18.073Z,74.11
2023-02-01T03:01:15.112Z,74.19
2023-02-01T03:02:15.114Z,74.19
2023-02-01T03:03:15.069Z,74.11
2023-02-01T03:04:15.068Z,74.17
2023-02-01T03:05:11.070Z,74.12
2023-02-01T03:07:20.080Z,74.14
2023-02-01T03:08:18.066Z,74.12
2023-02-01T03:09:17.065Z,74.10
2023-02-01T03:10:16.065Z,74.15
2023-02-01T03:11:11.079Z,74.19
2023-02-01T03:12:16.076Z,74.09
2023-02-01T03:13:19.076Z,74.06
2023-02-01T03:14:11.070Z,74.25
2023-02-01T03:15:13.075Z,74.37
2023-02-01T03:16:22.128Z,74.33
2023-02-01T03:17:16.068Z,74.40
2023-02-01T03:18:17.068Z,74.36
2023-02-01T03:19:19.084Z,74.48
2023-02-01T03:20:13.065Z,74.48
2023-02-01T03:21:16.066Z,74.46
2023-02-01T03:23:13.397Z,74.46
2023-02-01T03:24:15.067Z,74.37
2023-02-01T03:25:15.069Z,74.40
2023-02-01T03:26:12.076Z,74.38
2023-02-01T03:27:18.068Z,74.38
2023-02-01T03:28:11.068Z,74.38
2023-02-01T03:29:17.071Z,74.32
2023-02-01T03:30:19.090Z,74.47
2023-02-01T03:31:11.150Z,74.49
2023-02-01T03:32:11.066Z,74.45
2023-02-01T03:33:18.076Z,74.39
2023-02-01T03:34:11.070Z,74.31
2023-02-01T03:35:11.069Z,74.29
2023-02-01T03:36:20.098Z,74.29
2023-02-01T03:37:13.079Z,74.21
2023-02-01T03:38:19.066Z,74.37
2023-02-01T03:39:19.064Z,74.28
2023-02-01T03:40:13.069Z,74.23
2023-02-01T03:41:19.072Z,74.21
2023-02-01T03:42:22.069Z,74.24
2023-02-01T03:43:15.065Z,74.25
2023-02-01T03:44:22.088Z,74.24
2023-02-01T03:45:20.078Z,74.26
2023-02-01T03:46:15.144Z,74.23
2023-02-01T03:47:19.073Z,74.32
2023-02-01T03:48:12.080Z,74.27
2023-02-01T03:49:14.078Z,74.26
2023-02-01T03:50:14.082Z,74.25
2023-02-01T03:51:11.071Z,74.35
2023-02-01T03:52:14.116Z,74.31
2023-02-01T03:53:15.070Z,74.36
2023-02-01T03:54:12.078Z,74.27
2023-02-01T03:55:11.070Z,74.32
2023-02-01T03:56:11.078Z,74.22
2023-02-01T03:57:13.077Z,74.23
2023-02-01T03:58:15.069Z,74.29
2023-02-01T03:59:11.078Z,74.41
2023-02-01T04:00:18.059Z,74.27
2023-02-01T04:01:11.096Z,74.24
2023-02-01T04:02:11.103Z,74.20
2023-02-01T04:03:11.068Z,74.26
2023-02-01T04:04:11.062Z,74.26
2023-02-01T04:05:11.067Z,74.28
2023-02-01T04:06:11.069Z,74.19
2023-02-01T04:07:11.057Z,74.19
2023-02-01T04:08:11.066Z,74.20
2023-02-01T04:09:11.065Z,74.30
2023-02-01T04:10:11.072Z,74.33
2023-02-01T04:11:11.063Z,74.41
2023-02-01T04:12:11.063Z,74.44
2023-02-01T04:13:11.060Z,74.40
2023-02-01T04:14:11.065Z,74.40
2023-02-01T04:15:11.067Z,74.45
2023-02-01T04:16:11.063Z,74.53
2023-02-01T04:17:11.064Z,74.45
2023-02-01T04:19:13.044Z,74.49
2023-02-01T04:20:11.059Z,74.58
2023-02-01T04:21:11.075Z,74.55
2023-02-01T04:22:11.065Z,74.55
2023-02-01T04:24:13.032Z,74.63
2023-02-01T04:25:11.063Z,74.61
2023-02-01T04:26:11.061Z,74.54
2023-02-01T04:27:11.070Z,74.46
2023-02-01T04:29:13.036Z,74.46
2023-02-01T04:30:11.060Z,74.44
2023-02-01T04:31:11.208Z,74.42
2023-02-01T04:32:11.068Z,74.43
2023-02-01T04:33:12.069Z,74.36
2023-02-01T04:34:11.072Z,74.51
2023-02-01T04:35:11.081Z,74.59
2023-02-01T04:36:11.066Z,74.55
2023-02-01T04:37:11.076Z,74.50
2023-02-01T04:38:11.064Z,74.49
2023-02-01T04:39:11.075Z,74.41
2023-02-01T04:40:11.071Z,74.35
2023-02-01T04:41:11.065Z,74.35
2023-02-01T04:42:11.063Z,74.28
2023-02-01T04:43:11.072Z,74.23
2023-02-01T04:44:14.066Z,74.13
2023-02-01T04:45:11.066Z,74.25
2023-02-01T04:46:11.102Z,74.35
2023-02-01T04:47:11.066Z,74.31
2023-02-01T04:48:11.064Z,74.24
2023-02-01T04:49:11.069Z,74.29
2023-02-01T04:50:11.074Z,74.32
2023-02-01T04:51:11.076Z,74.27
2023-02-01T04:52:11.068Z,74.21
2023-02-01T04:53:11.073Z,74.18
2023-02-01T04:54:11.068Z,74.20
2023-02-01T04:55:11.076Z,74.08
2023-02-01T04:56:11.072Z,74.08
2023-02-01T04:57:11.075Z,74.15
2023-02-01T04:58:11.063Z,74.20
2023-02-01T04:59:11.068Z,74.13
2023-02-01T05:00:11.071Z,74.03
2023-02-01T05:01:11.097Z,74.06
2023-02-01T05:02:11.070Z,74.11
2023-02-01T05:03:11.071Z,74.25
2023-02-01T05:04:11.065Z,74.11
2023-02-01T05:05:11.065Z,74.12
2023-02-01T05:06:11.069Z,74.18
2023-02-01T05:07:11.066Z,74.10
2023-02-01T05:08:11.072Z,74.13
2023-02-01T05:09:11.068Z,74.12
2023-02-01T05:10:11.063Z,74.22
2023-02-01T05:11:11.066Z,74.20
2023-02-01T05:12:15.075Z,74.23
2023-02-01T05:13:15.068Z,74.25
2023-02-01T05:14:11.066Z,74.27
2023-02-01T05:15:11.068Z,74.28
2023-02-01T05:16:11.118Z,74.25
2023-02-01T05:17:11.076Z,74.24
2023-02-01T05:18:11.066Z,74.25
2023-02-01T05:19:11.084Z,74.31
2023-02-01T05:20:11.066Z,74.42
2023-02-01T05:21:11.073Z,74.42
2023-02-01T05:22:11.088Z,74.37
2023-02-01T05:23:11.064Z,74.52
2023-02-01T05:24:15.068Z,74.44
2023-02-01T05:25:11.083Z,74.46
2023-02-01T05:26:11.073Z,74.49
2023-02-01T05:27:11.069Z,74.51
2023-02-01T05:28:11.071Z,74.54
2023-02-01T05:29:11.095Z,74.50
2023-02-01T05:30:11.069Z,74.49
2023-02-01T05:31:13.131Z,74.52
2023-02-01T05:32:22.089Z,74.58
2023-02-01T05:33:13.069Z,74.60
2023-02-01T05:34:11.072Z,74.50
2023-02-01T05:35:11.076Z,74.61
2023-02-01T05:36:11.069Z,74.63
2023-02-01T05:37:11.065Z,74.70
2023-02-01T05:38:11.073Z,74.63
2023-02-01T05:39:11.075Z,74.65
2023-02-01T05:40:11.062Z,74.55
2023-02-01T05:41:11.071Z,74.66
2023-02-01T05:42:11.078Z,74.54
2023-02-01T05:43:11.070Z,74.52
2023-02-01T05:44:12.087Z,74.53
2023-02-01T05:45:12.078Z,74.58
2023-02-01T05:46:11.114Z,74.52
2023-02-01T05:47:11.094Z,74.58
2023-02-01T05:48:11.089Z,74.61
2023-02-01T05:49:11.083Z,74.52
2023-02-01T05:50:11.070Z,74.59
2023-02-01T05:51:11.097Z,74.71
2023-02-01T05:52:11.068Z,74.69
2023-02-01T05:53:11.123Z,74.75
2023-02-01T05:54:11.082Z,74.70
2023-02-01T05:55:11.084Z,74.73
2023-02-01T05:56:11.077Z,74.67
2023-02-01T05:57:11.072Z,74.68
2023-02-01T05:58:11.071Z,74.71
2023-02-01T06:00:13.043Z,74.60
2023-02-01T06:01:11.079Z,74.72
2023-02-01T06:02:11.171Z,74.75
2023-02-01T06:03:11.075Z,74.79
2023-02-01T06:04:11.135Z,74.79
2023-02-01T06:05:11.072Z,74.81
2023-02-01T06:06:11.074Z,74.85
2023-02-01T06:07:11.078Z,74.84
2023-02-01T06:08:12.068Z,74.96
2023-02-01T06:09:11.073Z,74.85
2023-02-01T06:10:11.071Z,74.96
2023-02-01T06:11:15.300Z,75.07
2023-02-01T06:12:13.060Z,74.95
2023-02-01T06:13:11.077Z,74.94
2023-02-01T06:14:12.080Z,74.89
2023-02-01T06:15:11.067Z,74.94
2023-02-01T06:16:11.111Z,74.93
2023-02-01T06:17:11.082Z,74.99
2023-02-01T06:18:11.069Z,75.09
2023-02-01T06:19:11.075Z,75.01
2023-02-01T06:20:12.107Z,74.92
2023-02-01T06:21:11.078Z,74.87
2023-02-01T06:22:11.070Z,74.85
2023-02-01T06:23:11.078Z,74.79
2023-02-01T06:24:11.069Z,74.84
2023-02-01T06:25:11.119Z,74.77
2023-02-01T06:26:11.079Z,74.76
2023-02-01T06:27:11.070Z,74.80
2023-02-01T06:28:11.074Z,74.83
2023-02-01T06:29:12.082Z,74.84
2023-02-01T06:30:12.077Z,74.84
2023-02-01T06:31:11.201Z,74.88
2023-02-01T06:32:11.084Z,74.83
2023-02-01T06:33:11.088Z,74.82
2023-02-01T06:34:11.077Z,74.80
2023-02-01T06:35:13.070Z,74.75
2023-02-01T06:36:12.083Z,74.81
2023-02-01T06:37:11.071Z,74.90
2023-02-01T06:38:11.073Z,74.91
2023-02-01T06:39:11.081Z,74.93
2023-02-01T06:40:11.081Z,74.96
2023-02-01T06:41:11.072Z,74.92
2023-02-01T06:42:11.093Z,74.93
2023-02-01T06:43:11.080Z,74.83
2023-02-01T06:44:11.073Z,74.94
2023-02-01T06:45:11.081Z,74.94
2023-02-01T06:46:12.107Z,74.91
2023-02-01T06:47:11.078Z,74.88
2023-02-01T06:48:11.081Z,74.81
2023-02-01T06:49:11.079Z,74.78
2023-02-01T06:50:11.070Z,74.75
2023-02-01T06:51:19.086Z,74.83
2023-02-01T06:52:11.076Z,74.78
2023-02-01T06:53:11.074Z,74.86
2023-02-01T06:54:11.072Z,74.88
2023-02-01T06:55:11.084Z,74.91
2023-02-01T06:56:11.073Z,74.78
2023-02-01T06:57:11.076Z,74.78
2023-02-01T06:58:11.081Z,74.72
2023-02-01T06:59:11.077Z,74.79
2023-02-01T07:00:11.058Z,74.78
2023-02-01T07:01:11.091Z,74.69
2023-02-01T07:02:13.158Z,74.78
2023-02-01T07:03:11.062Z,74.69
2023-02-01T07:04:12.082Z,74.70
2023-02-01T07:05:11.068Z,74.65
2023-02-01T07:06:11.069Z,74.77
2023-02-01T07:07:11.064Z,74.66
2023-02-01T07:08:11.073Z,74.67
2023-02-01T07:09:11.060Z,74.63
2023-02-01T07:10:11.064Z,74.62
2023-02-01T07:11:11.069Z,74.58
2023-02-01T07:12:11.062Z,74.62
2023-02-01T07:13:11.067Z,74.64
2023-02-01T07:14:13.076Z,74.72
2023-02-01T07:15:11.074Z,74.70
2023-02-01T07:16:12.197Z,74.70
2023-02-01T07:17:11.061Z,74.58
2023-02-01T07:18:11.071Z,74.68
2023-02-01T07:19:11.071Z,74.75
2023-02-01T07:20:11.066Z,74.78
2023-02-01T07:21:11.068Z,74.79
2023-02-01T07:22:11.062Z,74.90
2023-02-01T07:23:12.068Z,74.79
2023-02-01T07:24:11.070Z,74.78
2023-02-01T07:25:11.061Z,74.83
2023-02-01T07:26:12.064Z,74.82
2023-02-01T07:27:11.084Z,74.74
2023-02-01T07:28:11.066Z,74.66
2023-02-01T07:29:11.078Z,74.60
2023-02-01T07:30:11.077Z,74.65
2023-02-01T07:31:11.118Z,74.80
2023-02-01T07:32:11.224Z,74.78
2023-02-01T07:33:11.073Z,74.92
2023-02-01T07:34:11.064Z,74.94
2023-02-01T07:35:11.067Z,74.82
2023-02-01T07:36:13.066Z,74.84
2023-02-01T07:37:11.063Z,74.78
2023-02-01T07:38:11.063Z,74.80
2023-02-01T07:39:11.062Z,74.82
2023-02-01T07:40:11.063Z,74.87
2023-02-01T07:41:11.067Z,74.87
2023-02-01T07:42:11.062Z,74.89
2023-02-01T07:43:11.072Z,75.01
2023-02-01T07:44:11.069Z,75.10
2023-02-01T07:45:21.093Z,75.09
2023-02-01T07:46:13.147Z,74.98
2023-02-01T07:47:11.064Z,75.04
2023-02-01T07:48:11.067Z,75.21
2023-02-01T07:49:11.063Z,75.20
2023-02-01T07:50:11.066Z,75.14
2023-02-01T07:51:13.073Z,75.13
2023-02-01T07:52:11.065Z,75.29
2023-02-01T07:53:11.069Z,75.40
2023-02-01T07:54:11.066Z,75.55
2023-02-01T07:55:11.063Z,75.48
2023-02-01T07:56:14.074Z,75.44
2023-02-01T07:57:11.064Z,75.48
2023-02-01T07:58:11.067Z,75.50
2023-02-01T07:59:11.072Z,75.47
2023-02-01T08:00:15.065Z,75.46
2023-02-01T08:01:19.140Z,75.48
2023-02-01T08:02:11.085Z,75.47
2023-02-01T08:03:11.075Z,75.44
2023-02-01T08:04:11.061Z,75.40
2023-02-01T08:05:11.066Z,75.29
2023-02-01T08:06:11.072Z,75.36
2023-02-01T08:07:11.065Z,75.42
2023-02-01T08:08:11.069Z,75.33
2023-02-01T08:09:11.075Z,75.37
2023-02-01T08:10:15.064Z,75.28
2023-02-01T08:11:11.065Z,75.20
2023-02-01T08:12:11.067Z,75.21
2023-02-01T08:13:11.067Z,75.16
2023-02-01T08:14:11.071Z,75.13
2023-02-01T08:15:11.065Z,75.22
2023-02-01T08:16:11.102Z,75.26
2023-02-01T08:17:11.069Z,75.23
2023-02-01T08:18:11.067Z,75.14
2023-02-01T08:19:11.068Z,75.02
2023-02-01T08:20:11.065Z,75.00
2023-02-01T08:21:17.070Z,75.02
2023-02-01T08:22:11.076Z,74.99
2023-02-01T08:23:12.064Z,74.97
2023-02-01T08:24:11.139Z,75.03
2023-02-01T08:25:11.075Z,74.96
2023-02-01T08:26:17.089Z,75.11
2023-02-01T08:27:11.061Z,75.05
2023-02-01T08:28:11.069Z,74.95
2023-02-01T08:29:11.067Z,74.95
2023-02-01T08:30:11.072Z,74.98
2023-02-01T08:31:13.202Z,74.93
2023-02-01T08:32:11.078Z,74.95
2023-02-01T08:33:11.068Z,74.89
2023-02-01T08:34:11.069Z,74.94
2023-02-01T08:35:11.080Z,74.96
2023-02-01T08:36:11.066Z,74.84
2023-02-01T08:37:11.070Z,74.81
2023-02-01T08:38:11.079Z,74.75
2023-02-01T08:39:13.070Z,74.99
2023-02-01T08:40:11.065Z,74.92
2023-02-01T08:41:12.077Z,74.72
2023-02-01T08:42:15.069Z,74.65
2023-02-01T08:43:11.064Z,74.65
2023-02-01T08:44:11.068Z,74.53
2023-02-01T08:45:11.071Z,74.55
2023-02-01T08:46:11.133Z,74.43
2023-02-01T08:47:11.068Z,74.38
2023-02-01T08:48:11.070Z,74.29
2023-02-01T08:49:11.069Z,74.29
2023-02-01T08:50:11.071Z,74.25
2023-02-01T08:51:11.082Z,74.20
2023-02-01T08:52:16.263Z,74.14
2023-02-01T08:53:13.072Z,74.15
2023-02-01T08:54:11.079Z,74.09
2023-02-01T08:55:11.068Z,74.03
2023-02-01T08:56:13.079Z,73.97
2023-02-01T08:57:11.071Z,73.94
2023-02-01T08:58:11.069Z,73.77
2023-02-01T08:59:11.068Z,73.73
2023-02-01T09:00:12.072Z,73.77
2023-02-01T09:01:15.190Z,73.72
2023-02-01T09:02:14.082Z,73.57
2023-02-01T09:03:12.080Z,73.56
2023-02-01T09:04:11.155Z,73.47
2023-02-01T09:05:11.075Z,73.43
2023-02-01T09:06:11.090Z,73.38
2023-02-01T09:07:11.079Z,73.38
2023-02-01T09:08:11.079Z,73.37
2023-02-01T09:09:11.073Z,73.34
2023-02-01T09:10:11.076Z,73.41
2023-02-01T09:11:14.078Z,73.30
2023-02-01T09:12:11.072Z,73.19
2023-02-01T09:13:11.079Z,73.24
2023-02-01T09:14:11.071Z,73.17
2023-02-01T09:15:11.116Z,73.24
2023-02-01T09:16:11.163Z,73.20
2023-02-01T09:17:11.082Z,73.21
2023-02-01T09:18:11.078Z,73.10
2023-02-01T09:19:25.906Z,73.06
2023-02-01T09:20:13.077Z,72.93
2023-02-01T09:21:11.079Z,72.81
2023-02-01T09:22:11.077Z,72.91
2023-02-01T09:23:12.081Z,72.84
2023-02-01T09:24:11.071Z,72.79
2023-02-01T09:25:11.117Z,72.80
2023-02-01T09:26:11.842Z,72.75
2023-02-01T09:27:11.121Z,72.59
2023-02-01T09:28:11.078Z,72.48
2023-02-01T09:29:14.078Z,72.52
2023-02-01T09:30:11.070Z,72.38
2023-02-01T09:31:11.240Z,72.30
2023-02-01T09:32:11.204Z,72.24
2023-02-01T09:33:11.069Z,72.16
2023-02-01T09:34:11.084Z,72.06
2023-02-01T09:35:11.079Z,71.89
2023-02-01T09:36:11.071Z,71.80
2023-02-01T09:37:11.073Z,71.69
2023-02-01T09:38:11.082Z,71.54
2023-02-01T09:39:11.091Z,71.38
2023-02-01T09:40:15.070Z,71.20
2023-02-01T09:41:19.083Z,71.12
2023-02-01T09:42:19.076Z,70.97
2023-02-01T09:43:19.072Z,70.75
2023-02-01T09:44:19.125Z,70.62
2023-02-01T09:45:19.082Z,70.47
2023-02-01T09:46:21.198Z,70.46
2023-02-01T09:47:15.072Z,70.31
2023-02-01T09:48:18.071Z,70.00
2023-02-01T09:49:20.070Z,69.90
2023-02-01T09:50:15.071Z,69.77
2023-02-01T09:51:19.073Z,69.51
2023-02-01T09:52:13.071Z,69.34
2023-02-01T09:53:21.074Z,69.27
2023-02-01T09:54:19.084Z,68.97
2023-02-01T09:55:17.082Z,68.92
2023-02-01T09:56:19.075Z,68.90
2023-02-01T09:57:21.072Z,68.69
2023-02-01T09:58:19.076Z,68.37
2023-02-01T09:59:19.075Z,68.49
2023-02-01T10:00:19.068Z,68.42
2023-02-01T10:01:19.110Z,68.20
2023-02-01T10:02:17.075Z,68.14
2023-02-01T10:03:15.087Z,67.97
2023-02-01T10:04:13.073Z,68.15
2023-02-01T10:05:15.073Z,68.11
2023-02-01T10:06:19.064Z,68.17
2023-02-01T10:07:19.061Z,68.23
2023-02-01T10:08:21.075Z,68.16
2023-02-01T10:09:19.068Z,68.25
2023-02-01T10:10:19.060Z,68.10
2023-02-01T10:11:21.059Z,68.21
2023-02-01T10:12:21.061Z,68.22
2023-02-01T10:13:21.067Z,68.24
2023-02-01T10:14:19.074Z,68.35
2023-02-01T10:15:21.691Z,68.42
2023-02-01T10:16:22.199Z,68.33
2023-02-01T10:17:21.059Z,68.45
2023-02-01T10:18:19.063Z,68.59
2023-02-01T10:19:19.068Z,68.53
2023-02-01T10:20:21.646Z,68.40
2023-02-01T10:21:19.067Z,68.39
2023-02-01T10:22:17.063Z,68.66
2023-02-01T10:23:32.821Z,68.67
2023-02-01T10:24:21.403Z,68.85
2023-02-01T10:25:23.073Z,68.76
2023-02-01T10:26:19.118Z,68.71
2023-02-01T10:27:19.077Z,68.57
2023-02-01T10:28:16.072Z,68.49
2023-02-01T10:29:18.077Z,68.56
2023-02-01T10:30:21.204Z,68.47
2023-02-01T10:31:11.137Z,68.27
2023-02-01T10:32:18.066Z,68.33
2023-02-01T10:33:19.065Z,68.34
2023-02-01T10:34:19.071Z,68.19
2023-02-01T10:35:21.067Z,68.17
2023-02-01T10:36:17.063Z,68.23
2023-02-01T10:37:19.066Z,68.03
2023-02-01T10:38:19.071Z,67.96
2023-02-01T10:39:12.077Z,67.91
2023-02-01T10:40:18.074Z,68.09
2023-02-01T10:41:18.074Z,67.91
2023-02-01T10:42:11.692Z,67.82
2023-02-01T10:43:11.074Z,67.77
2023-02-01T10:44:16.123Z,67.69
2023-02-01T10:45:16.063Z,67.59
2023-02-01T10:46:11.106Z,67.71
2023-02-01T10:47:11.067Z,67.63
2023-02-01T10:48:11.061Z,67.75
2023-02-01T10:49:20.075Z,67.62
2023-02-01T10:50:19.149Z,67.70
2023-02-01T10:51:19.077Z,67.70
2023-02-01T10:52:18.078Z,67.63
2023-02-01T10:53:19.066Z,67.66
2023-02-01T10:54:20.076Z,67.58
2023-02-01T10:55:19.069Z,67.67
2023-02-01T10:56:11.068Z,67.64
2023-02-01T10:57:11.064Z,67.64
2023-02-01T10:58:18.079Z,67.62
2023-02-01T10:59:18.068Z,67.55
2023-02-01T11:00:19.108Z,67.43
2023-02-01T11:01:15.071Z,67.58
2023-02-01T11:02:18.075Z,67.51
2023-02-01T11:03:19.069Z,67.43
2023-02-01T11:04:12.063Z,67.41
2023-02-01T11:05:11.093Z,67.44
2023-02-01T11:06:19.087Z,67.39
2023-02-01T11:07:20.069Z,67.61
2023-02-01T11:08:17.071Z,67.53
2023-02-01T11:09:19.067Z,67.47
2023-02-01T11:10:21.538Z,67.65
2023-02-01T11:11:11.075Z,67.68
2023-02-01T11:12:19.068Z,67.64
2023-02-01T11:13:15.068Z,67.62
2023-02-01T11:14:19.089Z,67.54
2023-02-01T11:15:19.091Z,67.48
2023-02-01T11:16:13.137Z,67.54
2023-02-01T11:17:21.068Z,67.43
2023-02-01T11:18:18.071Z,67.51
2023-02-01T11:19:15.069Z,67.62
2023-02-01T11:20:18.077Z,67.64
2023-02-01T11:21:14.085Z,67.51
2023-02-01T11:22:11.067Z,67.34
2023-02-01T11:23:18.075Z,67.31
2023-02-01T11:24:19.068Z,67.36
2023-02-01T11:25:14.068Z,67.32
2023-02-01T11:26:21.179Z,67.29
2023-02-01T11:27:22.071Z,67.30
2023-02-01T11:28:13.092Z,67.22
2023-02-01T11:29:16.073Z,67.17
2023-02-01T11:30:15.063Z,67.21
2023-02-01T11:31:14.111Z,67.06
2023-02-01T11:32:11.072Z,67.00
2023-02-01T11:33:14.099Z,67.13
2023-02-01T11:34:15.073Z,67.05
2023-02-01T11:35:16.073Z,66.99
2023-02-01T11:36:15.067Z,67.02
2023-02-01T11:37:19.071Z,67.03
2023-02-01T11:38:19.077Z,66.93
2023-02-01T11:39:21.084Z,66.77
2023-02-01T11:40:21.285Z,67.08
2023-02-01T11:41:15.071Z,67.11
2023-02-01T11:42:15.082Z,67.06
2023-02-01T11:43:18.070Z,67.10
2023-02-01T11:44:21.078Z,66.98
2023-02-01T11:45:19.071Z,67.02
2023-02-01T11:46:18.156Z,67.03
2023-02-01T11:47:20.076Z,66.99
2023-02-01T11:48:26.191Z,66.97
2023-02-01T11:49:23.084Z,67.03
2023-02-01T11:50:19.075Z,66.87
2023-02-01T11:51:19.071Z,66.99
2023-02-01T11:52:19.074Z,66.90
2023-02-01T11:53:19.074Z,66.80
2023-02-01T11:54:19.073Z,66.88
2023-02-01T11:55:19.077Z,66.89
2023-02-01T11:56:21.078Z,66.73
2023-02-01T11:57:19.074Z,66.80
2023-02-01T11:58:23.101Z,66.73
2023-02-01T11:59:19.083Z,66.66
2023-02-01T12:00:21.697Z,66.58
2023-02-01T12:01:19.069Z,66.58
2023-02-01T12:02:21.095Z,66.61
2023-02-01T12:03:19.125Z,66.36
2023-02-01T12:04:21.089Z,66.44
2023-02-01T12:05:19.076Z,66.12
2023-02-01T12:06:19.075Z,66.04
2023-02-01T12:07:19.071Z,66.20
2023-02-01T12:08:21.076Z,66.24
2023-02-01T12:09:19.080Z,66.03
2023-02-01T12:10:19.081Z,65.89
2023-02-01T12:11:19.074Z,65.87
2023-02-01T12:12:21.071Z,65.79
2023-02-01T12:13:19.077Z,65.72
2023-02-01T12:14:21.081Z,65.74
2023-02-01T12:15:21.073Z,65.70
2023-02-01T12:16:21.115Z,65.69
2023-02-01T12:17:19.075Z,65.66
2023-02-01T12:18:19.073Z,65.79
2023-02-01T12:19:21.069Z,65.79
2023-02-01T12:20:21.092Z,65.60
2023-02-01T12:21:19.077Z,66.01
2023-02-01T12:22:19.082Z,65.89
2023-02-01T12:23:19.084Z,65.86
2023-02-01T12:24:19.103Z,65.95
2023-02-01T12:25:21.090Z,65.81
2023-02-01T12:26:19.669Z,65.78
2023-02-01T12:27:19.084Z,65.79
2023-02-01T12:28:19.076Z,65.70
2023-02-01T12:29:19.076Z,65.70
2023-02-01T12:30:23.374Z,65.71
2023-02-01T12:31:19.102Z,65.74
2023-02-01T12:32:19.079Z,65.74
2023-02-01T12:33:19.074Z,65.81
2023-02-01T12:34:21.077Z,65.84
2023-02-01T12:35:19.084Z,65.76
2023-02-01T12:36:19.093Z,65.75
2023-02-01T12:37:21.078Z,65.65
2023-02-01T12:38:23.074Z,65.61
2023-02-01T12:39:19.079Z,65.73
2023-02-01T12:40:19.100Z,65.68
2023-02-01T12:41:21.084Z,65.51
2023-02-01T12:42:22.078Z,65.41
2023-02-01T12:43:19.081Z,65.54
2023-02-01T12:44:19.076Z,65.60
2023-02-01T12:45:21.076Z,65.67
2023-02-01T12:46:17.188Z,65.62
2023-02-01T12:47:21.088Z,65.48
2023-02-01T12:48:19.082Z,65.50
2023-02-01T12:49:17.081Z,65.62
2023-02-01T12:50:19.078Z,65.80
2023-02-01T12:51:19.081Z,65.60
2023-02-01T12:52:15.079Z,65.54
2023-02-01T12:53:20.076Z,65.49
2023-02-01T12:54:21.073Z,65.42
2023-02-01T12:55:20.078Z,65.40
2023-02-01T12:56:13.081Z,65.35
2023-02-01T12:57:18.079Z,65.33
2023-02-01T12:58:21.079Z,65.33
2023-02-01T12:59:19.084Z,65.20